createdAt,value
2022-10-01T00:01:14.335Z,99992.47
2022-10-01T00:04:01.075Z,99998.13
2022-10-01T00:06:46.870Z,100003.59
2022-10-01T00:09:32.531Z,99984.22
2022-10-01T00:12:18.251Z,99995.06
2022-10-01T00:15:06.169Z,99982.09
2022-10-01T00:17:53.101Z,99985.13
2022-10-01T00:20:43.435Z,100006.00
2022-10-01T00:23:29.690Z,100014.78
2022-10-01T00:26:18.030Z,100009.31
2022-10-01T00:29:06.448Z,99999.38
2022-10-01T00:31:52.188Z,100001.41
2022-10-01T00:34:38.172Z,100011.66
2022-10-01T00:37:23.602Z,100015.50
2022-10-01T00:40:09.563Z,99985.69
2022-10-01T00:42:55.184Z,100019.09
2022-10-01T00:45:41.394Z,100016.97
2022-10-01T00:48:29.530Z,100016.97
2022-10-01T00:51:15.772Z,99995.41
2022-10-01T00:54:08.437Z,100023.03
2022-10-01T00:56:56.437Z,99999.59
2022-10-01T00:59:42.032Z,100015.31
2022-10-01T01:02:27.717Z,100016.94
2022-10-01T01:05:14.098Z,100010.16
2022-10-01T01:08:02.945Z,100000.53
2022-10-01T01:11:23.155Z,100016.50
2022-10-01T01:14:29.607Z,100009.00
2022-10-01T01:17:50.928Z,100009.50
2022-10-01T01:20:45.607Z,100015.56
2022-10-01T01:23:37.123Z,100018.88
2022-10-01T01:26:41.129Z,99996.47
2022-10-01T01:29:34.990Z,99993.66
2022-10-01T01:32:27.207Z,99999.22
2022-10-01T01:35:18.922Z,100006.13
2022-10-01T01:38:11.444Z,100002.88
2022-10-01T01:40:59.332Z,100003.19
2022-10-01T01:43:47.224Z,99996.78
2022-10-01T01:46:36.550Z,100014.28
2022-10-01T01:49:23.526Z,99994.72
2022-10-01T01:52:15.080Z,99993.13
2022-10-01T01:55:05.245Z,100005.13
2022-10-01T01:57:51.435Z,100007.56
2022-10-01T02:00:37.591Z,99981.63
2022-10-01T02:03:26.060Z,99997.03
2022-10-01T02:06:26.188Z,99973.13
2022-10-01T02:09:24.329Z,100000.72
2022-10-01T02:12:35.611Z,99995.09
2022-10-01T02:15:42.288Z,99993.78
2022-10-01T02:19:04.792Z,99984.53
2022-10-01T02:22:12.919Z,99988.59
2022-10-01T02:25:00.249Z,99957.16
2022-10-01T02:27:55.821Z,99960.38
2022-10-01T02:30:42.453Z,99979.56
2022-10-01T02:33:31.464Z,99970.31
2022-10-01T02:36:18.709Z,99934.50
2022-10-01T02:39:06.689Z,99940.53
2022-10-01T02:41:54.172Z,99937.63
2022-10-01T02:44:42.586Z,99962.72
2022-10-01T02:47:40.807Z,99938.13
2022-10-01T02:50:32.339Z,99948.66
2022-10-01T02:53:32.526Z,99949.75
2022-10-01T02:56:46.070Z,99943.78
2022-10-01T02:59:34.918Z,99912.63
2022-10-01T03:02:20.940Z,99925.81
2022-10-01T03:05:08.071Z,99933.91
2022-10-01T03:07:53.845Z,99922.56
2022-10-01T03:10:42.416Z,99914.91
2022-10-01T03:13:31.837Z,99924.53
2022-10-01T03:16:17.648Z,99905.00
2022-10-01T03:19:03.668Z,99894.84
2022-10-01T03:21:49.380Z,99903.28
2022-10-01T03:24:35.145Z,99906.50
2022-10-01T03:27:21.808Z,99918.66
2022-10-01T03:30:08.296Z,99907.53
2022-10-01T03:32:54.227Z,99893.66
2022-10-01T03:35:39.778Z,99912.09
2022-10-01T03:38:25.674Z,99891.94
2022-10-01T03:41:11.103Z,99892.81
2022-10-01T03:44:00.373Z,99882.50
2022-10-01T03:46:46.428Z,99913.66
2022-10-01T03:49:32.267Z,99915.38
2022-10-01T03:52:18.055Z,99908.06
2022-10-01T03:55:04.069Z,99895.09
2022-10-01T03:57:50.210Z,99901.34
2022-10-01T04:00:36.303Z,99901.34
2022-10-01T04:03:22.228Z,99898.09
2022-10-01T04:06:07.950Z,99912.13
2022-10-01T04:08:54.122Z,99903.13
2022-10-01T04:11:40.221Z,99905.34
2022-10-01T04:14:26.095Z,99898.94
2022-10-01T04:17:11.837Z,99895.91
2022-10-01T04:19:57.789Z,99877.88
2022-10-01T04:22:44.573Z,99891.84
2022-10-01T04:25:31.115Z,99894.88
2022-10-01T04:28:17.522Z,99883.84
2022-10-01T04:31:21.670Z,99901.13
2022-10-01T04:34:07.150Z,99886.63
2022-10-01T04:36:52.619Z,99905.56
2022-10-01T04:39:38.233Z,99892.81
2022-10-01T04:42:23.851Z,99872.63
2022-10-01T04:45:10.626Z,99878.53
2022-10-01T04:47:56.869Z,99885.59
2022-10-01T04:50:42.739Z,99898.50
2022-10-01T04:53:28.887Z,99893.03
2022-10-01T04:56:14.793Z,99883.66
2022-10-01T04:59:00.548Z,99875.06
2022-10-01T05:01:46.445Z,99882.63
2022-10-01T05:04:32.417Z,99896.19
2022-10-01T05:07:19.432Z,99872.91
2022-10-01T05:10:06.102Z,99889.13
2022-10-01T05:12:52.232Z,99879.72
2022-10-01T05:15:37.720Z,99873.22
2022-10-01T05:18:23.502Z,99887.00
2022-10-01T05:21:11.528Z,99897.59
2022-10-01T05:23:57.391Z,99884.34
2022-10-01T05:26:42.964Z,99887.00
2022-10-01T05:29:29.183Z,99880.16
2022-10-01T05:32:14.857Z,99894.28
2022-10-01T05:35:00.741Z,99901.13
2022-10-01T05:37:55.781Z,99880.19
2022-10-01T05:40:45.289Z,99905.56
2022-10-01T05:43:31.363Z,99877.34
2022-10-01T05:46:17.702Z,99895.28
2022-10-01T05:49:03.748Z,99894.59
2022-10-01T05:51:49.754Z,99889.59
2022-10-01T05:54:35.134Z,99891.16
2022-10-01T05:57:21.703Z,99860.84
2022-10-01T06:00:08.272Z,99890.66
2022-10-01T06:02:59.555Z,99846.53
2022-10-01T06:05:45.034Z,99858.09
2022-10-01T06:08:32.223Z,99881.50
2022-10-01T06:11:18.818Z,99851.66
2022-10-01T06:14:05.086Z,99871.72
2022-10-01T06:16:54.728Z,99862.09
2022-10-01T06:19:40.402Z,99867.69
2022-10-01T06:22:26.393Z,99865.53
2022-10-01T06:25:15.011Z,99864.84
2022-10-01T06:28:02.175Z,99840.88
2022-10-01T06:30:49.740Z,99863.72
2022-10-01T06:33:35.392Z,99862.25
2022-10-01T06:36:21.057Z,99849.28
2022-10-01T06:39:06.252Z,99840.16
2022-10-01T06:41:52.363Z,99846.53
2022-10-01T06:44:39.265Z,99858.94
2022-10-01T06:47:24.647Z,99845.25
2022-10-01T06:50:10.692Z,99852.00
2022-10-01T06:52:57.293Z,99855.06
2022-10-01T06:55:43.641Z,99853.94
2022-10-01T06:58:29.342Z,99828.25
2022-10-01T07:01:19.672Z,99830.09
2022-10-01T07:04:05.896Z,99842.97
2022-10-01T07:06:52.170Z,99824.00
2022-10-01T07:09:38.120Z,99841.31
2022-10-01T07:12:24.015Z,99840.91
2022-10-01T07:15:10.231Z,99815.72
2022-10-01T07:17:55.966Z,99832.19
2022-10-01T07:20:41.870Z,99807.03
2022-10-01T07:23:27.144Z,99807.50
2022-10-01T07:26:12.920Z,99805.84
2022-10-01T07:28:58.469Z,99804.03
2022-10-01T07:31:44.131Z,99803.19
2022-10-01T07:34:32.742Z,99784.75
2022-10-01T07:37:18.760Z,99797.63
2022-10-01T07:40:07.530Z,99800.63
2022-10-01T07:42:54.735Z,99791.69
2022-10-01T07:45:40.320Z,99789.16
2022-10-01T07:48:27.460Z,99796.16
2022-10-01T07:51:13.203Z,99787.59
2022-10-01T07:53:59.245Z,99785.91
2022-10-01T07:56:44.884Z,99770.69
2022-10-01T07:59:31.406Z,99777.72
2022-10-01T08:02:19.058Z,99797.63
2022-10-01T08:05:17.463Z,99776.75
2022-10-01T08:08:07.661Z,99792.19
2022-10-01T08:10:53.729Z,99778.81
2022-10-01T08:13:40.334Z,99778.84
2022-10-01T08:16:29.236Z,99777.94
2022-10-01T08:19:15.425Z,99773.53
2022-10-01T08:22:00.998Z,99776.53
2022-10-01T08:24:46.453Z,99767.69
2022-10-01T08:27:32.560Z,99757.94
2022-10-01T08:30:18.170Z,99765.31
2022-10-01T08:33:04.073Z,99754.06
2022-10-01T08:35:49.523Z,99746.94
2022-10-01T08:38:36.687Z,99754.50
2022-10-01T08:41:42.457Z,99756.47
2022-10-01T08:44:33.156Z,99740.16
2022-10-01T08:47:26.233Z,99744.72
2022-10-01T08:50:18.001Z,99737.34
2022-10-01T08:53:09.409Z,99730.94
2022-10-01T08:55:55.754Z,99726.03
2022-10-01T08:58:43.957Z,99727.28
2022-10-01T09:01:30.999Z,99729.69
2022-10-01T09:04:17.082Z,99711.56
2022-10-01T09:07:29.702Z,99710.88
2022-10-01T09:10:30.292Z,99712.34
2022-10-01T09:13:27.832Z,99707.66
2022-10-01T09:16:35.401Z,99712.34
2022-10-01T09:19:33.737Z,99697.66
2022-10-01T09:22:38.023Z,99698.72
2022-10-01T09:25:27.309Z,99690.47
2022-10-01T09:28:24.609Z,99671.28
2022-10-01T09:31:19.901Z,99692.59
2022-10-01T09:34:14.819Z,99692.50
2022-10-01T09:37:14.620Z,99677.09
2022-10-01T09:40:19.308Z,99687.81
2022-10-01T09:43:08.257Z,99669.03
2022-10-01T09:45:54.345Z,99642.44
2022-10-01T09:48:48.726Z,99674.56
2022-10-01T09:51:40.193Z,99663.88
2022-10-01T09:54:35.885Z,99655.13
2022-10-01T09:57:26.125Z,99660.75
2022-10-01T10:00:17.411Z,99657.59
2022-10-01T10:03:03.135Z,99651.91
2022-10-01T10:05:49.583Z,99654.56
2022-10-01T10:08:36.927Z,99646.56
2022-10-01T10:11:25.674Z,99646.94
2022-10-01T10:14:17.629Z,99624.84
2022-10-01T10:17:16.229Z,99647.53
2022-10-01T10:20:01.810Z,99616.81
2022-10-01T10:22:47.364Z,99646.94
2022-10-01T10:25:32.916Z,99638.63
2022-10-01T10:28:23.963Z,99625.00
2022-10-01T10:31:27.883Z,99635.44
2022-10-01T10:34:19.168Z,99610.66
2022-10-01T10:37:12.231Z,99626.34
2022-10-01T10:39:58.283Z,99606.72
2022-10-01T10:42:48.936Z,99579.00
2022-10-01T10:45:38.801Z,99584.97
2022-10-01T10:48:29.109Z,99594.03
2022-10-01T10:51:14.624Z,99592.97
2022-10-01T10:54:00.770Z,99580.22
2022-10-01T10:57:04.297Z,99598.28
2022-10-01T10:59:58.301Z,99577.00
2022-10-01T11:02:56.857Z,99576.22
2022-10-01T11:05:43.531Z,99576.66
2022-10-01T11:08:30.094Z,99571.44
2022-10-01T11:11:34.348Z,99569.44
2022-10-01T11:14:51.124Z,99565.81
2022-10-01T11:17:52.159Z,99561.97
2022-10-01T11:21:04.909Z,99518.44
2022-10-01T11:23:54.992Z,99554.03
2022-10-01T11:27:12.507Z,99539.00
2022-10-01T11:30:21.003Z,99519.06
2022-10-01T11:33:16.671Z,99546.13
2022-10-01T11:36:03.001Z,99514.91
2022-10-01T11:39:00.476Z,99498.97
2022-10-01T11:41:49.159Z,99522.97
2022-10-01T11:44:40.003Z,99529.75
2022-10-01T11:47:39.275Z,99518.88
2022-10-01T11:50:39.448Z,99493.88
2022-10-01T11:53:30.953Z,99509.59
2022-10-01T11:56:43.447Z,99507.72
2022-10-01T11:59:41.581Z,99505.38
2022-10-01T12:02:35.088Z,99498.97
2022-10-01T12:05:23.809Z,99491.53
2022-10-01T12:08:19.320Z,99468.31
2022-10-01T12:11:23.799Z,99496.22
2022-10-01T12:14:17.874Z,99480.09
2022-10-01T12:17:12.289Z,99464.47
2022-10-01T12:20:00.190Z,99478.44
2022-10-01T12:22:46.271Z,99473.63
2022-10-01T12:25:57.476Z,99462.16
2022-10-01T12:28:52.004Z,99465.25
2022-10-01T12:31:51.306Z,99453.00
2022-10-01T12:35:06.636Z,99453.88
2022-10-01T12:37:58.471Z,99455.09
2022-10-01T12:40:54.649Z,99429.56
2022-10-01T12:43:50.526Z,99451.97
2022-10-01T12:47:07.061Z,99445.38
2022-10-01T12:50:04.436Z,99449.94
2022-10-01T12:52:57.067Z,99448.06
2022-10-01T12:56:01.510Z,99414.34
2022-10-01T12:59:06.386Z,99431.28
2022-10-01T13:02:31.166Z,99423.94
2022-10-01T13:05:35.123Z,99418.13
2022-10-01T13:08:29.687Z,99403.88
2022-10-01T13:11:53.039Z,99404.66
2022-10-01T13:14:44.315Z,99395.06
2022-10-01T13:17:41.762Z,99393.88
2022-10-01T13:20:35.785Z,99394.06
2022-10-01T13:23:23.540Z,99391.31
2022-10-01T13:26:40.441Z,99393.63
2022-10-01T13:29:53.239Z,99388.47
2022-10-01T13:32:52.778Z,99390.09
2022-10-01T13:35:41.249Z,99362.00
2022-10-01T13:38:30.483Z,99369.22
2022-10-01T13:41:42.426Z,99384.53
2022-10-01T13:44:33.882Z,99371.72
2022-10-01T13:47:19.732Z,99380.28
2022-10-01T13:50:08.027Z,99377.38
2022-10-01T13:53:15.358Z,99362.47
2022-10-01T13:56:01.867Z,99367.00
2022-10-01T13:58:47.279Z,99344.41
2022-10-01T14:01:42.083Z,99343.41
2022-10-01T14:04:48.184Z,99339.56
2022-10-01T14:07:36.158Z,99360.25
2022-10-01T14:10:23.205Z,99313.69
2022-10-01T14:13:28.872Z,99338.13
2022-10-01T14:16:15.247Z,99338.47
2022-10-01T14:19:01.783Z,99333.22
2022-10-01T14:21:56.777Z,99338.84
2022-10-01T14:24:54.778Z,99334.47
2022-10-01T14:27:49.298Z,99329.03
2022-10-01T14:30:54.665Z,99330.63
2022-10-01T14:33:49.174Z,99321.63
2022-10-01T14:36:47.554Z,99296.50
2022-10-01T14:39:33.286Z,99282.97
2022-10-01T14:42:18.961Z,99278.53
2022-10-01T14:45:16.033Z,99286.81
2022-10-01T14:48:04.229Z,99274.44
2022-10-01T14:50:52.233Z,99274.28
2022-10-01T14:53:38.566Z,99252.31
2022-10-01T14:56:24.140Z,99274.19
2022-10-01T14:59:18.241Z,99273.66
2022-10-01T15:02:17.405Z,99225.88
2022-10-01T15:05:35.090Z,99253.91
2022-10-01T15:08:23.851Z,99255.72
2022-10-01T15:11:29.900Z,99227.28
2022-10-01T15:14:21.773Z,99248.72
2022-10-01T15:17:10.489Z,99253.81
2022-10-01T15:19:56.666Z,99262.53
2022-10-01T15:22:45.189Z,99318.94
2022-10-01T15:25:31.441Z,99311.31
2022-10-01T15:28:27.835Z,99297.34
2022-10-01T15:31:13.834Z,99313.06
2022-10-01T15:34:04.442Z,99307.63
2022-10-01T15:36:50.578Z,99317.75
2022-10-01T15:39:38.816Z,99297.19
2022-10-01T15:42:28.237Z,99322.63
2022-10-01T15:45:25.780Z,99312.53
2022-10-01T15:48:29.209Z,99319.28
2022-10-01T15:51:19.548Z,99304.94
2022-10-01T15:54:08.571Z,99325.09
2022-10-01T15:56:54.237Z,99318.44
2022-10-01T15:59:40.105Z,99301.03
2022-10-01T16:02:28.177Z,99309.72
2022-10-01T16:05:17.584Z,99315.91
2022-10-01T16:08:03.505Z,99293.44
2022-10-01T16:11:09.058Z,99314.16
2022-10-01T16:14:17.577Z,99308.19
2022-10-01T16:17:27.978Z,99304.22
2022-10-01T16:20:14.106Z,99288.41
2022-10-01T16:23:36.622Z,99313.34
2022-10-01T16:26:34.031Z,99299.84
2022-10-01T16:29:23.021Z,99284.00
2022-10-01T16:32:13.941Z,99292.50
2022-10-01T16:35:21.181Z,99294.56
2022-10-01T16:38:08.445Z,99285.50
2022-10-01T16:40:54.288Z,99272.78
2022-10-01T16:43:40.106Z,99296.03
2022-10-01T16:46:25.548Z,99303.47
2022-10-01T16:49:14.076Z,99277.25
2022-10-01T16:51:59.933Z,99284.47
2022-10-01T16:54:47.358Z,99273.69
2022-10-01T16:57:32.839Z,99276.78
2022-10-01T17:00:20.912Z,99297.16
2022-10-01T17:03:10.106Z,99304.25
2022-10-01T17:05:55.954Z,99280.31
2022-10-01T17:08:41.949Z,99275.50
2022-10-01T17:11:29.895Z,99300.72
2022-10-01T17:14:21.112Z,99290.44
2022-10-01T17:17:07.035Z,99292.50
2022-10-01T17:19:52.753Z,99267.41
2022-10-01T17:22:39.522Z,99293.44
2022-10-01T17:25:31.058Z,99274.63
2022-10-01T17:28:20.266Z,99266.97
2022-10-01T17:31:07.562Z,99283.81
2022-10-01T17:33:53.805Z,99263.06
2022-10-01T17:36:39.940Z,99283.34
2022-10-01T17:39:26.581Z,99288.84
2022-10-01T17:42:15.050Z,99292.03
2022-10-01T17:45:02.937Z,99287.81
2022-10-01T17:47:50.406Z,99284.13
2022-10-01T17:50:44.194Z,99270.84
2022-10-01T17:53:36.164Z,99287.47
2022-10-01T17:56:28.632Z,99261.94
2022-10-01T17:59:16.171Z,99274.91
2022-10-01T18:02:40.516Z,99296.97
2022-10-01T18:05:25.040Z,99277.63
2022-10-01T18:08:11.242Z,99291.59
2022-10-01T18:11:09.445Z,99266.53
2022-10-01T18:13:58.719Z,99266.88
2022-10-01T18:16:45.177Z,99272.47
2022-10-01T18:22:41.626Z,99272.00
2022-10-01T18:25:28.873Z,99290.31
2022-10-01T18:28:15.134Z,99259.78
2022-10-01T18:31:15.645Z,99295.13
2022-10-01T18:34:03.422Z,99281.41
2022-10-01T18:37:06.860Z,99284.16
2022-10-01T18:40:16.541Z,99280.63
2022-10-01T18:43:14.292Z,99274.53
2022-10-01T18:46:18.243Z,99287.94
2022-10-01T18:49:22.745Z,99288.72
2022-10-01T18:52:12.241Z,99288.16
2022-10-01T18:55:25.768Z,99274.50
2022-10-01T18:58:23.666Z,99288.00
2022-10-01T19:01:15.357Z,99285.59
2022-10-01T19:04:12.378Z,99278.63
2022-10-01T19:07:16.344Z,99291.66
2022-10-01T19:10:19.599Z,99280.44
2022-10-01T19:13:26.823Z,99285.34
2022-10-01T19:16:31.074Z,99293.56
2022-10-01T19:19:28.822Z,99296.78
2022-10-01T19:22:24.533Z,99292.91
2022-10-01T19:25:45.501Z,99301.59
2022-10-01T19:29:04.314Z,99300.66
2022-10-01T19:32:00.334Z,99294.03
2022-10-01T19:34:50.092Z,99284.88
2022-10-01T19:37:43.537Z,99273.88
2022-10-01T19:40:35.050Z,99284.63
2022-10-01T19:43:38.508Z,99298.59
2022-10-01T19:46:36.642Z,99300.09
2022-10-01T19:49:27.695Z,99287.13
2022-10-01T19:52:18.239Z,99300.41
2022-10-01T19:55:13.251Z,99285.66
2022-10-01T19:57:59.638Z,99307.97
2022-10-01T20:00:53.008Z,99281.31
2022-10-01T20:03:57.781Z,99302.03
2022-10-01T20:06:46.856Z,99284.06
2022-10-01T20:09:45.246Z,99302.69
2022-10-01T20:12:41.715Z,99290.22
2022-10-01T20:15:45.745Z,99303.38
2022-10-01T20:18:51.728Z,99314.81
2022-10-01T20:22:02.729Z,99309.47
2022-10-01T20:25:00.189Z,99314.94
2022-10-01T20:28:02.933Z,99313.88
2022-10-01T20:31:10.941Z,99324.66
2022-10-01T20:34:04.941Z,99316.03
2022-10-01T20:37:12.673Z,99330.34
2022-10-01T20:40:17.919Z,99312.38
2022-10-01T20:43:34.599Z,99342.72
2022-10-01T20:46:33.873Z,99341.25
2022-10-01T20:49:41.809Z,99341.72
2022-10-01T20:52:36.648Z,99316.97
2022-10-01T20:55:29.158Z,99338.28
2022-10-01T20:58:23.578Z,99337.81
2022-10-01T21:01:30.485Z,99330.38
2022-10-01T21:04:20.521Z,99326.03
2022-10-01T21:07:28.399Z,99331.88
2022-10-01T21:10:22.125Z,99294.31
2022-10-01T21:13:17.372Z,99340.09
2022-10-01T21:16:12.943Z,99341.34
2022-10-01T21:18:58.457Z,99336.53
2022-10-01T21:21:55.306Z,99327.47
2022-10-01T21:25:09.375Z,99348.34
2022-10-01T21:28:13.060Z,99326.34
2022-10-01T21:31:08.327Z,99326.88
2022-10-01T21:34:07.899Z,99356.09
2022-10-01T21:37:12.492Z,99359.63
2022-10-01T21:40:01.511Z,99366.72
2022-10-01T21:43:02.841Z,99348.06
2022-10-01T21:45:59.612Z,99340.84
2022-10-01T21:48:53.912Z,99354.28
2022-10-01T21:52:00.032Z,99363.50
2022-10-01T21:55:15.364Z,99358.69
2022-10-01T21:58:16.570Z,99367.41
2022-10-01T22:01:15.888Z,99362.25
2022-10-01T22:04:27.020Z,99368.06
2022-10-01T22:07:51.429Z,99368.88
2022-10-01T22:10:44.592Z,99369.66
2022-10-01T22:13:33.953Z,99355.69
2022-10-01T22:16:22.038Z,99368.06
2022-10-01T22:19:11.984Z,99361.75
2022-10-01T22:22:09.516Z,99374.22
2022-10-01T22:24:58.789Z,99366.41
2022-10-01T22:27:51.753Z,99373.75
2022-10-01T22:30:39.343Z,99368.94
2022-10-01T22:33:33.903Z,99385.34
2022-10-01T22:36:47.370Z,99397.56
2022-10-01T22:39:39.874Z,99374.31
2022-10-01T22:42:30.511Z,99405.47
2022-10-01T22:45:17.192Z,99386.81
2022-10-01T22:48:30.796Z,99402.84
2022-10-01T22:51:35.495Z,99404.59
2022-10-01T22:54:30.173Z,99414.28
2022-10-01T22:57:40.190Z,99414.09
2022-10-01T23:00:26.279Z,99393.22
2022-10-01T23:03:24.746Z,99419.25
2022-10-01T23:06:19.625Z,99424.91
2022-10-01T23:09:33.766Z,99415.53
2022-10-01T23:12:45.241Z,99426.97
2022-10-01T23:15:56.359Z,99429.25
2022-10-01T23:19:10.667Z,99418.66
2022-10-01T23:22:23.259Z,99418.78
2022-10-01T23:25:18.803Z,99426.69
2022-10-01T23:28:15.118Z,99440.69
2022-10-01T23:31:17.728Z,99444.22
2022-10-01T23:34:16.616Z,99427.34
2022-10-01T23:37:30.468Z,99440.22
2022-10-01T23:40:18.481Z,99444.75
2022-10-01T23:43:11.824Z,99448.78
2022-10-01T23:46:05.327Z,99454.13
2022-10-01T23:48:54.078Z,99451.72
2022-10-01T23:51:55.792Z,99443.41
2022-10-01T23:54:49.033Z,99444.69
2022-10-01T23:57:38.021Z,99452.44
